Coral Electra — PCAG — position and weather

sailwx.info

Track history (hours):
 
Tides and Currents Weather Stations Pressure Air Temp Water Temp Dewpoint Dewpoint Depression Visibility Wind Speed Wind Dir Waves Ship Positions

Coral Electra

Last reported at 2015-Aug-01 19:33 UTC. Time now 2015-Aug-01 20:21 UTC.
Position N 53°27' E 006°50'.

Length 14 m.

Type: Port tender. MMSI: 244690019.

Date/timePositionNaut miles runAvg speedWind from/ knotsBaromVisibWave heightAir tempDewpointWater temp
2015-Aug-01 19:33N 53°27' E 006°50'5 4.6
2015-Aug-01 18:32N 53°30' E 006°45'2 0.6
2015-Aug-01 14:32N 53°32' E 006°41'7 7.3
2015-Aug-01 13:33N 53°27' E 006°50'0 0.1
2015-Aug-01 12:33N 53°27' E 006°50'0 0.0
2015-Aug-01 11:31N 53°27' E 006°50'7 7.1
2015-Aug-01 10:31N 53°32' E 006°41'2 1.9
2015-Aug-01 09:31N 53°33' E 006°43'7 7.7
2015-Aug-01 08:33N 53°27' E 006°50'0 0.0
2015-Aug-01 07:33N 53°27' E 006°50'0 0.0
2015-Aug-01 06:32N 53°27' E 006°50'0 0.0
2015-Aug-01 05:29N 53°27' E 006°50'0 0.0
2015-Aug-01 04:32N 53°27' E 006°50'0 0.0
2015-Aug-01 03:33N 53°27' E 006°50'0 0.0
2015-Aug-01 02:30N 53°27' E 006°50'0 0.0
2015-Aug-01 01:29N 53°27' E 006°50'0 0.0
2015-Aug-01 00:25N 53°27' E 006°50'0 0.0
2015-Jul-31 23:31N 53°27' E 006°50'0 0.0
2015-Jul-31 22:31N 53°27' E 006°50'0 0.0
2015-Jul-31 21:33N 53°27' E 006°50'0 0.0
2015-Jul-31 20:33N 53°27' E 006°50'0 0.0
2015-Jul-31 19:32N 53°27' E 006°50'0 0.3
2015-Jul-31 18:33N 53°27' E 006°50'3 3.3
2015-Jul-31 17:32N 53°29' E 006°45'0 0.0
2015-Jul-31 16:29N 53°29' E 006°45'0 0.0
2015-Jul-31 15:30N 53°29' E 006°45'0 0.0
2015-Jul-31 14:29N 53°29' E 006°45'0 0.0
2015-Jul-31 13:29N 53°29' E 006°45'3 3.2
2015-Jul-31 12:28N 53°27' E 006°50'0 0.0
2015-Jul-31 11:30N 53°27' E 006°50'0 0.0
2015-Jul-31 10:30N 53°27' E 006°50'0 0.3
2015-Jul-31 09:33N 53°27' E 006°49'3 2.7
2015-Jul-31 08:33N 53°27' E 006°54'0 0.3
2015-Jul-31 07:33N 53°26' E 006°54'2 2.4
2015-Jul-31 06:33N 53°27' E 006°50'3 3.4
2015-Jul-31 05:33N 53°29' E 006°45'0 0.0
2015-Jul-31 04:33N 53°29' E 006°45'0 0.0
2015-Jul-31 03:31N 53°29' E 006°45'0 0.0
2015-Jul-31 02:33N 53°29' E 006°45'3 3.0
2015-Jul-31 01:26N 53°27' E 006°50'0 0.0
2015-Jul-31 00:29N 53°27' E 006°50'0 0.0
2015-Jul-30 23:22N 53°27' E 006°50'0 0.0
2015-Jul-30 22:29N 53°27' E 006°50'0 0.0
2015-Jul-30 21:32N 53°27' E 006°50'0 0.0
2015-Jul-30 20:32N 53°27' E 006°50'0 0.0
2015-Jul-30 19:16N 53°27' E 006°50'0 0.0
2015-Jul-30 18:28N 53°27' E 006°50'0 0.0
2015-Jul-30 17:28N 53°27' E 006°50'0 0.0
2015-Jul-30 16:25N 53°27' E 006°50'0 0.0
2015-Jul-30 15:30N 53°27' E 006°50'0 0.0
2015-Jul-30 14:28N 53°27' E 006°50'0 0.0
2015-Jul-30 13:32N 53°27' E 006°50'0 0.0
2015-Jul-30 12:32N 53°27' E 006°50'0 0.0
2015-Jul-30 11:31N 53°27' E 006°50'0 0.0
2015-Jul-30 10:33N 53°27' E 006°50'0 0.0
2015-Jul-30 09:32N 53°27' E 006°50'0 0.0
2015-Jul-30 08:23N 53°27' E 006°50'0 0.0
2015-Jul-30 07:33N 53°27' E 006°50'0 0.0
2015-Jul-30 06:33N 53°27' E 006°50'0 0.0
2015-Jul-30 05:33N 53°27' E 006°50'0 0.0
2015-Jul-30 04:30N 53°27' E 006°50'0 0.0
2015-Jul-30 03:32N 53°27' E 006°50'0 0.0
2015-Jul-30 02:30N 53°27' E 006°50'0 0.0
2015-Jul-30 01:33N 53°27' E 006°50'0 0.0
2015-Jul-30 00:29N 53°27' E 006°50'0 0.0
2015-Jul-29 23:33N 53°27' E 006°50'0 0.0
2015-Jul-29 22:33N 53°27' E 006°50'0 0.0
2015-Jul-29 21:33N 53°27' E 006°50'0 0.0
2015-Jul-29 20:33N 53°27' E 006°50'0 0.0
2015-Jul-29 19:30N 53°27' E 006°50'0 0.0
2015-Jul-29 18:29N 53°27' E 006°50'0 0.0
2015-Jul-29 17:32N 53°27' E 006°50'0 0.0
2015-Jul-29 16:32N 53°27' E 006°50'0 0.0
2015-Jul-29 15:26N 53°27' E 006°50'0 0.0
2015-Jul-29 14:32N 53°27' E 006°50'0 0.0
2015-Jul-29 13:33N 53°27' E 006°50'0 0.0
2015-Jul-29 12:33N 53°27' E 006°50'0 0.0
2015-Jul-29 11:27N 53°27' E 006°50'0 0.0
2015-Jul-29 10:31N 53°27' E 006°50'0 0.0
2015-Jul-29 09:33N 53°27' E 006°50'0 0.0
2015-Jul-29 08:33N 53°27' E 006°50'0 0.0
2015-Jul-29 07:33N 53°27' E 006°50'0 0.0
2015-Jul-29 06:33N 53°27' E 006°50'0 0.0
2015-Jul-29 05:33N 53°27' E 006°50'0 0.0
2015-Jul-29 04:33N 53°27' E 006°50'0 0.0
2015-Jul-29 03:33N 53°27' E 006°50'0 0.0
2015-Jul-29 02:25N 53°27' E 006°50'0 0.0
2015-Jul-29 01:33N 53°27' E 006°50'0 0.0
2015-Jul-29 00:31N 53°27' E 006°50'0 0.0
2015-Jul-28 23:33N 53°27' E 006°50'0 0.0
2015-Jul-28 22:30N 53°27' E 006°50'0 0.0
2015-Jul-28 21:28N 53°27' E 006°50'0 0.0
2015-Jul-28 20:33N 53°27' E 006°50'0 0.0
2015-Jul-28 19:28N 53°27' E 006°50'0 0.0
2015-Jul-28 18:24N 53°27' E 006°50'2 2.1
2015-Jul-28 17:33N 53°28' E 006°49'2 1.8
2015-Jul-28 16:32N 53°27' E 006°50'0 0.0
2015-Jul-28 15:30N 53°27' E 006°50'0 0.0
2015-Jul-28 14:33N 53°27' E 006°50'0 0.0
2015-Jul-28 13:30N 53°27' E 006°50'0 0.0
2015-Jul-28 12:30N 53°27' E 006°50'0 0.3
2015-Jul-28 11:33N 53°27' E 006°49'7 6.0
2015-Jul-28 10:26N 53°33' E 006°44'7 7.5
2015-Jul-28 09:33N 53°27' E 006°49'0 0.3
2015-Jul-28 08:30N 53°27' E 006°50'0 0.0
2015-Jul-28 07:33N 53°27' E 006°50'0 0.0
2015-Jul-28 06:33N 53°27' E 006°50'0 0.0
2015-Jul-28 05:27N 53°27' E 006°50'0 0.0
2015-Jul-28 04:32N 53°27' E 006°50'0 0.0
2015-Jul-28 03:31N 53°27' E 006°50'0 0.0
2015-Jul-28 02:29N 53°27' E 006°50'0 0.0
2015-Jul-28 01:28N 53°27' E 006°50'0 0.0
2015-Jul-28 00:28N 53°27' E 006°50'0 0.0
2015-Jul-27 23:28N 53°27' E 006°50'0 0.0
2015-Jul-27 22:26N 53°27' E 006°50'0 0.0
2015-Jul-27 21:31N 53°27' E 006°50'0 0.0
2015-Jul-27 20:31N 53°27' E 006°50'0 0.0
2015-Jul-27 19:31N 53°27' E 006°50'0 0.0
2015-Jul-27 18:31N 53°27' E 006°50'0 0.0
2015-Jul-27 17:31N 53°27' E 006°50'0 0.0
2015-Jul-27 16:28N 53°27' E 006°50'3 2.9
2015-Jul-27 15:33N 53°29' E 006°52'3 2.6
2015-Jul-27 14:33N 53°27' E 006°50'0 0.0
2015-Jul-27 13:29N 53°27' E 006°50'0 0.0
2015-Jul-27 12:31N 53°27' E 006°50'0 0.0
2015-Jul-27 11:31N 53°27' E 006°50'0 0.3
2015-Jul-27 10:29N 53°27' E 006°49'7 7.1
2015-Jul-27 09:30N 53°33' E 006°43'7 7.3
2015-Jul-27 08:31N 53°27' E 006°50'0 0.0
2015-Jul-27 07:32N 53°27' E 006°50'0 0.0
2015-Jul-27 06:32N 53°27' E 006°50'0 0.0
2015-Jul-27 05:32N 53°27' E 006°50'0 0.0
2015-Jul-27 04:31N 53°27' E 006°50'3 3.7
2015-Jul-27 03:33N 53°30' E 006°52'1 0.8
2015-Jul-27 02:33N 53°30' E 006°51'3 3.1
2015-Jul-27 01:33N 53°27' E 006°50'0 0.0
2015-Jul-27 00:33N 53°27' E 006°50'0 0.0
2015-Jul-26 23:31N 53°27' E 006°50'0 0.0
2015-Jul-26 22:31N 53°27' E 006°50'0 0.0
2015-Jul-26 21:31N 53°27' E 006°50'0 0.0
2015-Jul-26 20:29N 53°27' E 006°50'0 0.0
2015-Jul-26 19:32N 53°27' E 006°50'4 3.7
2015-Jul-26 18:31N 53°30' E 006°53'4 3.8
2015-Jul-26 17:33N 53°27' E 006°50'0 0.0
2015-Jul-26 16:32N 53°27' E 006°50'0 0.0
2015-Jul-26 15:32N 53°27' E 006°50'0 0.0
2015-Jul-26 14:33N 53°27' E 006°50'0 0.0
2015-Jul-26 13:30N 53°27' E 006°50'0 0.0
2015-Jul-26 12:30N 53°27' E 006°50'0 0.0
2015-Jul-26 11:31N 53°27' E 006°50'0 0.0
2015-Jul-26 10:33N 53°27' E 006°50'0 0.0
2015-Jul-26 09:32N 53°27' E 006°50'0 0.0
2015-Jul-26 08:07N 53°27' E 006°50'0 0.0
2015-Jul-26 07:33N 53°27' E 006°50'0 0.0
2015-Jul-26 06:29N 53°27' E 006°50'0 0.0
2015-Jul-26 05:32N 53°27' E 006°50'0 0.0
2015-Jul-26 04:33N 53°27' E 006°50'0 0.0
2015-Jul-26 03:33N 53°27' E 006°50'0 0.0
2015-Jul-26 02:31N 53°27' E 006°50'0 0.0
2015-Jul-26 01:32N 53°27' E 006°50'0 0.0
2015-Jul-26 00:26N 53°27' E 006°50'0 0.0
2015-Jul-25 23:33N 53°27' E 006°50'0 0.0
2015-Jul-25 22:28N 53°27' E 006°50'0 0.0
2015-Jul-25 21:31N 53°27' E 006°50'0 0.0
2015-Jul-25 20:29N 53°27' E 006°50'0 0.0
2015-Jul-25 19:33N 53°27' E 006°50'0 0.0
2015-Jul-25 18:31N 53°27' E 006°50'0 0.0
2015-Jul-25 17:28N 53°27' E 006°50'0 0.0
2015-Jul-25 16:33N 53°27' E 006°50'0 0.0
2015-Jul-25 15:31N 53°27' E 006°50'0 0.0
2015-Jul-25 14:28N 53°27' E 006°50'0 0.0
2015-Jul-25 13:31N 53°27' E 006°50'0 0.0
2015-Jul-25 12:33N 53°27' E 006°50'0 0.0
2015-Jul-25 11:33N 53°27' E 006°50'0 0.0
2015-Jul-25 10:32N 53°27' E 006°50'0 0.0
2015-Jul-25 09:33N 53°27' E 006°50'0 0.0
2015-Jul-25 08:33N 53°27' E 006°50'0 0.0
2015-Jul-25 07:32N 53°27' E 006°50'0 0.0
2015-Jul-25 06:27N 53°27' E 006°50'0 0.0
2015-Jul-25 05:33N 53°27' E 006°50'0 0.0
2015-Jul-25 04:32N 53°27' E 006°50'0 0.0
2015-Jul-25 03:31N 53°27' E 006°50'0 0.0
2015-Jul-25 02:33N 53°27' E 006°50'0 0.0
2015-Jul-25 01:28N 53°27' E 006°50'0 0.0
2015-Jul-25 00:30N 53°27' E 006°50'0 0.0
2015-Jul-24 23:29N 53°27' E 006°50'0 0.0
2015-Jul-24 22:33N 53°27' E 006°50'0 0.0
2015-Jul-24 21:33N 53°27' E 006°50'0 0.0
2015-Jul-24 20:30N 53°27' E 006°50'0 0.0
2015-Jul-24 19:28N 53°27' E 006°50'0 0.0
2015-Jul-24 18:31N 53°27' E 006°50'0 0.0
2015-Jul-24 17:31N 53°27' E 006°50'0 0.0
2015-Jul-24 16:29N 53°27' E 006°50'0 0.0
2015-Jul-24 15:32N 53°27' E 006°50'0 0.0
2015-Jul-24 14:33N 53°27' E 006°50'0 0.0
2015-Jul-24 13:31N 53°27' E 006°50'0 0.0
2015-Jul-24 12:33N 53°27' E 006°50'3 2.6
2015-Jul-24 11:33N 53°29' E 006°47'3 2.7
2015-Jul-24 10:33N 53°30' E 006°43'0 0.0
2015-Jul-24 09:33N 53°30' E 006°42'0 0.0
2015-Jul-24 08:33N 53°30' E 006°42'0 0.0
2015-Jul-24 07:30N 53°30' E 006°42'0 0.0
2015-Jul-24 06:16N 53°30' E 006°43'0 0.0
2015-Jul-24 05:33N 53°30' E 006°43'5 5.1
2015-Jul-24 04:33N 53°27' E 006°50'0 0.0
2015-Jul-24 03:28N 53°27' E 006°50'0 0.0
2015-Jul-24 02:30N 53°27' E 006°50'0 0.0
2015-Jul-24 01:33N 53°27' E 006°50'0 0.0
2015-Jul-24 00:32N 53°27' E 006°50'0 0.0
2015-Jul-23 23:26N 53°27' E 006°50'0 0.0
2015-Jul-23 22:29N 53°27' E 006°50'0 0.0
2015-Jul-23 21:31N 53°27' E 006°50'0 0.0
2015-Jul-23 20:32N 53°27' E 006°50'0 0.0
2015-Jul-23 19:28N 53°27' E 006°50'0 0.0
2015-Jul-23 18:31N 53°27' E 006°50'0 0.0
2015-Jul-23 17:31N 53°27' E 006°50'0 0.0
2015-Jul-23 16:33N 53°27' E 006°50'0 0.0
2015-Jul-23 15:26N 53°27' E 006°50'1 1.5
2015-Jul-23 14:33N 53°28' E 006°49'1 1.3
2015-Jul-23 13:33N 53°27' E 006°50'0 0.1
2015-Jul-23 12:33N 53°27' E 006°50'0 0.0
2015-Jul-23 11:21N 53°27' E 006°50'5 6.0
2015-Jul-23 10:31N 53°29' E 006°43'0 0.0
2015-Jul-23 09:32N 53°29' E 006°43'0 0.0
2015-Jul-23 08:16N 53°29' E 006°43'0 0.0
2015-Jul-23 06:21N 53°29' E 006°43'0 0.0
2015-Jul-23 05:32N 53°29' E 006°43'2 2.1
2015-Jul-23 04:32N 53°29' E 006°46'3 2.8
2015-Jul-23 03:31N 53°27' E 006°50'4 4.5
2015-Jul-23 02:33N 53°29' E 006°44'4 4.4
2015-Jul-23 01:33N 53°27' E 006°50'0 0.1
2015-Jul-23 00:29N 53°27' E 006°50'0 0.0
2015-Jul-22 23:31N 53°27' E 006°50'0 0.0
2015-Jul-22 22:33N 53°27' E 006°50'0 0.0
2015-Jul-22 21:20N 53°27' E 006°50'0 0.0
2015-Jul-22 20:33N 53°27' E 006°50'  
Track history (hours):
 
Tides and Currents Weather Stations Pressure Air Temp Water Temp Dewpoint Dewpoint Depression Visibility Wind Speed Wind Dir Waves Ship Positions

Coral Electra

Last reported at 2015-Aug-01 19:33 UTC. Time now 2015-Aug-01 20:21 UTC.
Position N 53°27' E 006°50'.

Length 14 m.

Type: Port tender. MMSI: 244690019.

Date/timePositionNaut miles runAvg speedWind from/ knotsBaromVisibWave heightAir tempDewpointWater temp
2015-Aug-01 19:33N 53°27' E 006°50'5 4.6
2015-Aug-01 18:32N 53°30' E 006°45'2 0.6
2015-Aug-01 14:32N 53°32' E 006°41'7 7.3
2015-Aug-01 13:33N 53°27' E 006°50'0 0.1
2015-Aug-01 12:33N 53°27' E 006°50'0 0.0
2015-Aug-01 11:31N 53°27' E 006°50'7 7.1
2015-Aug-01 10:31N 53°32' E 006°41'2 1.9
2015-Aug-01 09:31N 53°33' E 006°43'7 7.7
2015-Aug-01 08:33N 53°27' E 006°50'0 0.0
2015-Aug-01 07:33N 53°27' E 006°50'0 0.0
2015-Aug-01 06:32N 53°27' E 006°50'0 0.0
2015-Aug-01 05:29N 53°27' E 006°50'0 0.0
2015-Aug-01 04:32N 53°27' E 006°50'0 0.0
2015-Aug-01 03:33N 53°27' E 006°50'0 0.0
2015-Aug-01 02:30N 53°27' E 006°50'0 0.0
2015-Aug-01 01:29N 53°27' E 006°50'0 0.0
2015-Aug-01 00:25N 53°27' E 006°50'0 0.0
2015-Jul-31 23:31N 53°27' E 006°50'0 0.0
2015-Jul-31 22:31N 53°27' E 006°50'0 0.0
2015-Jul-31 21:33N 53°27' E 006°50'0 0.0
2015-Jul-31 20:33N 53°27' E 006°50'0 0.0
2015-Jul-31 19:32N 53°27' E 006°50'0 0.3
2015-Jul-31 18:33N 53°27' E 006°50'3 3.3
2015-Jul-31 17:32N 53°29' E 006°45'0 0.0
2015-Jul-31 16:29N 53°29' E 006°45'0 0.0
2015-Jul-31 15:30N 53°29' E 006°45'0 0.0
2015-Jul-31 14:29N 53°29' E 006°45'0 0.0
2015-Jul-31 13:29N 53°29' E 006°45'3 3.2
2015-Jul-31 12:28N 53°27' E 006°50'0 0.0
2015-Jul-31 11:30N 53°27' E 006°50'0 0.0
2015-Jul-31 10:30N 53°27' E 006°50'0 0.3
2015-Jul-31 09:33N 53°27' E 006°49'3 2.7
2015-Jul-31 08:33N 53°27' E 006°54'0 0.3
2015-Jul-31 07:33N 53°26' E 006°54'2 2.4
2015-Jul-31 06:33N 53°27' E 006°50'3 3.4
2015-Jul-31 05:33N 53°29' E 006°45'0 0.0
2015-Jul-31 04:33N 53°29' E 006°45'0 0.0
2015-Jul-31 03:31N 53°29' E 006°45'0 0.0
2015-Jul-31 02:33N 53°29' E 006°45'3 3.0
2015-Jul-31 01:26N 53°27' E 006°50'0 0.0
2015-Jul-31 00:29N 53°27' E 006°50'0 0.0
2015-Jul-30 23:22N 53°27' E 006°50'0 0.0
2015-Jul-30 22:29N 53°27' E 006°50'0 0.0
2015-Jul-30 21:32N 53°27' E 006°50'0 0.0
2015-Jul-30 20:32N 53°27' E 006°50'0 0.0
2015-Jul-30 19:16N 53°27' E 006°50'0 0.0
2015-Jul-30 18:28N 53°27' E 006°50'0 0.0
2015-Jul-30 17:28N 53°27' E 006°50'0 0.0
2015-Jul-30 16:25N 53°27' E 006°50'0 0.0
2015-Jul-30 15:30N 53°27' E 006°50'0 0.0
2015-Jul-30 14:28N 53°27' E 006°50'0 0.0
2015-Jul-30 13:32N 53°27' E 006°50'0 0.0
2015-Jul-30 12:32N 53°27' E 006°50'0 0.0
2015-Jul-30 11:31N 53°27' E 006°50'0 0.0
2015-Jul-30 10:33N 53°27' E 006°50'0 0.0
2015-Jul-30 09:32N 53°27' E 006°50'0 0.0
2015-Jul-30 08:23N 53°27' E 006°50'0 0.0
2015-Jul-30 07:33N 53°27' E 006°50'0 0.0
2015-Jul-30 06:33N 53°27' E 006°50'0 0.0
2015-Jul-30 05:33N 53°27' E 006°50'0 0.0
2015-Jul-30 04:30N 53°27' E 006°50'0 0.0
2015-Jul-30 03:32N 53°27' E 006°50'0 0.0
2015-Jul-30 02:30N 53°27' E 006°50'0 0.0
2015-Jul-30 01:33N 53°27' E 006°50'0 0.0
2015-Jul-30 00:29N 53°27' E 006°50'0 0.0
2015-Jul-29 23:33N 53°27' E 006°50'0 0.0
2015-Jul-29 22:33N 53°27' E 006°50'0 0.0
2015-Jul-29 21:33N 53°27' E 006°50'0 0.0
2015-Jul-29 20:33N 53°27' E 006°50'0 0.0
2015-Jul-29 19:30N 53°27' E 006°50'0 0.0
2015-Jul-29 18:29N 53°27' E 006°50'0 0.0
2015-Jul-29 17:32N 53°27' E 006°50'0 0.0
2015-Jul-29 16:32N 53°27' E 006°50'0 0.0
2015-Jul-29 15:26N 53°27' E 006°50'0 0.0
2015-Jul-29 14:32N 53°27' E 006°50'0 0.0
2015-Jul-29 13:33N 53°27' E 006°50'0 0.0
2015-Jul-29 12:33N 53°27' E 006°50'0 0.0
2015-Jul-29 11:27N 53°27' E 006°50'0 0.0
2015-Jul-29 10:31N 53°27' E 006°50'0 0.0
2015-Jul-29 09:33N 53°27' E 006°50'0 0.0
2015-Jul-29 08:33N 53°27' E 006°50'0 0.0
2015-Jul-29 07:33N 53°27' E 006°50'0 0.0
2015-Jul-29 06:33N 53°27' E 006°50'0 0.0
2015-Jul-29 05:33N 53°27' E 006°50'0 0.0
2015-Jul-29 04:33N 53°27' E 006°50'0 0.0
2015-Jul-29 03:33N 53°27' E 006°50'0 0.0
2015-Jul-29 02:25N 53°27' E 006°50'0 0.0
2015-Jul-29 01:33N 53°27' E 006°50'0 0.0
2015-Jul-29 00:31N 53°27' E 006°50'0 0.0
2015-Jul-28 23:33N 53°27' E 006°50'0 0.0
2015-Jul-28 22:30N 53°27' E 006°50'0 0.0
2015-Jul-28 21:28N 53°27' E 006°50'0 0.0
2015-Jul-28 20:33N 53°27' E 006°50'0 0.0
2015-Jul-28 19:28N 53°27' E 006°50'0 0.0
2015-Jul-28 18:24N 53°27' E 006°50'2 2.1
2015-Jul-28 17:33N 53°28' E 006°49'2 1.8
2015-Jul-28 16:32N 53°27' E 006°50'0 0.0
2015-Jul-28 15:30N 53°27' E 006°50'0 0.0
2015-Jul-28 14:33N 53°27' E 006°50'0 0.0
2015-Jul-28 13:30N 53°27' E 006°50'0 0.0
2015-Jul-28 12:30N 53°27' E 006°50'0 0.3
2015-Jul-28 11:33N 53°27' E 006°49'7 6.0
2015-Jul-28 10:26N 53°33' E 006°44'7 7.5
2015-Jul-28 09:33N 53°27' E 006°49'0 0.3
2015-Jul-28 08:30N 53°27' E 006°50'0 0.0
2015-Jul-28 07:33N 53°27' E 006°50'0 0.0
2015-Jul-28 06:33N 53°27' E 006°50'0 0.0
2015-Jul-28 05:27N 53°27' E 006°50'0 0.0
2015-Jul-28 04:32N 53°27' E 006°50'0 0.0
2015-Jul-28 03:31N 53°27' E 006°50'0 0.0
2015-Jul-28 02:29N 53°27' E 006°50'0 0.0
2015-Jul-28 01:28N 53°27' E 006°50'0 0.0
2015-Jul-28 00:28N 53°27' E 006°50'0 0.0
2015-Jul-27 23:28N 53°27' E 006°50'0 0.0
2015-Jul-27 22:26N 53°27' E 006°50'0 0.0
2015-Jul-27 21:31N 53°27' E 006°50'0 0.0
2015-Jul-27 20:31N 53°27' E 006°50'0 0.0
2015-Jul-27 19:31N 53°27' E 006°50'0 0.0
2015-Jul-27 18:31N 53°27' E 006°50'0 0.0
2015-Jul-27 17:31N 53°27' E 006°50'0 0.0
2015-Jul-27 16:28N 53°27' E 006°50'3 2.9
2015-Jul-27 15:33N 53°29' E 006°52'3 2.6
2015-Jul-27 14:33N 53°27' E 006°50'0 0.0
2015-Jul-27 13:29N 53°27' E 006°50'0 0.0
2015-Jul-27 12:31N 53°27' E 006°50'0 0.0
2015-Jul-27 11:31N 53°27' E 006°50'0 0.3
2015-Jul-27 10:29N 53°27' E 006°49'7 7.1
2015-Jul-27 09:30N 53°33' E 006°43'7 7.3
2015-Jul-27 08:31N 53°27' E 006°50'0 0.0
2015-Jul-27 07:32N 53°27' E 006°50'0 0.0
2015-Jul-27 06:32N 53°27' E 006°50'0 0.0
2015-Jul-27 05:32N 53°27' E 006°50'0 0.0
2015-Jul-27 04:31N 53°27' E 006°50'3 3.7
2015-Jul-27 03:33N 53°30' E 006°52'1 0.8
2015-Jul-27 02:33N 53°30' E 006°51'3 3.1
2015-Jul-27 01:33N 53°27' E 006°50'0 0.0
2015-Jul-27 00:33N 53°27' E 006°50'0 0.0
2015-Jul-26 23:31N 53°27' E 006°50'0 0.0
2015-Jul-26 22:31N 53°27' E 006°50'0 0.0
2015-Jul-26 21:31N 53°27' E 006°50'0 0.0
2015-Jul-26 20:29N 53°27' E 006°50'0 0.0
2015-Jul-26 19:32N 53°27' E 006°50'4 3.7
2015-Jul-26 18:31N 53°30' E 006°53'4 3.8
2015-Jul-26 17:33N 53°27' E 006°50'0 0.0
2015-Jul-26 16:32N 53°27' E 006°50'0 0.0
2015-Jul-26 15:32N 53°27' E 006°50'0 0.0
2015-Jul-26 14:33N 53°27' E 006°50'0 0.0
2015-Jul-26 13:30N 53°27' E 006°50'0 0.0
2015-Jul-26 12:30N 53°27' E 006°50'0 0.0
2015-Jul-26 11:31N 53°27' E 006°50'0 0.0
2015-Jul-26 10:33N 53°27' E 006°50'0 0.0
2015-Jul-26 09:32N 53°27' E 006°50'0 0.0
2015-Jul-26 08:07N 53°27' E 006°50'0 0.0
2015-Jul-26 07:33N 53°27' E 006°50'0 0.0
2015-Jul-26 06:29N 53°27' E 006°50'0 0.0
2015-Jul-26 05:32N 53°27' E 006°50'0 0.0
2015-Jul-26 04:33N 53°27' E 006°50'0 0.0
2015-Jul-26 03:33N 53°27' E 006°50'0 0.0
2015-Jul-26 02:31N 53°27' E 006°50'0 0.0
2015-Jul-26 01:32N 53°27' E 006°50'0 0.0
2015-Jul-26 00:26N 53°27' E 006°50'0 0.0
2015-Jul-25 23:33N 53°27' E 006°50'0 0.0
2015-Jul-25 22:28N 53°27' E 006°50'0 0.0
2015-Jul-25 21:31N 53°27' E 006°50'0 0.0
2015-Jul-25 20:29N 53°27' E 006°50'0 0.0
2015-Jul-25 19:33N 53°27' E 006°50'0 0.0
2015-Jul-25 18:31N 53°27' E 006°50'0 0.0
2015-Jul-25 17:28N 53°27' E 006°50'0 0.0
2015-Jul-25 16:33N 53°27' E 006°50'0 0.0
2015-Jul-25 15:31N 53°27' E 006°50'0 0.0
2015-Jul-25 14:28N 53°27' E 006°50'0 0.0
2015-Jul-25 13:31N 53°27' E 006°50'0 0.0
2015-Jul-25 12:33N 53°27' E 006°50'0 0.0
2015-Jul-25 11:33N 53°27' E 006°50'0 0.0
2015-Jul-25 10:32N 53°27' E 006°50'0 0.0
2015-Jul-25 09:33N 53°27' E 006°50'0 0.0
2015-Jul-25 08:33N 53°27' E 006°50'0 0.0
2015-Jul-25 07:32N 53°27' E 006°50'0 0.0
2015-Jul-25 06:27N 53°27' E 006°50'0 0.0
2015-Jul-25 05:33N 53°27' E 006°50'0 0.0
2015-Jul-25 04:32N 53°27' E 006°50'0 0.0
2015-Jul-25 03:31N 53°27' E 006°50'0 0.0
2015-Jul-25 02:33N 53°27' E 006°50'0 0.0
2015-Jul-25 01:28N 53°27' E 006°50'0 0.0
2015-Jul-25 00:30N 53°27' E 006°50'0 0.0
2015-Jul-24 23:29N 53°27' E 006°50'0 0.0
2015-Jul-24 22:33N 53°27' E 006°50'0 0.0
2015-Jul-24 21:33N 53°27' E 006°50'0 0.0
2015-Jul-24 20:30N 53°27' E 006°50'0 0.0
2015-Jul-24 19:28N 53°27' E 006°50'0 0.0
2015-Jul-24 18:31N 53°27' E 006°50'0 0.0
2015-Jul-24 17:31N 53°27' E 006°50'0 0.0
2015-Jul-24 16:29N 53°27' E 006°50'0 0.0
2015-Jul-24 15:32N 53°27' E 006°50'0 0.0
2015-Jul-24 14:33N 53°27' E 006°50'0 0.0
2015-Jul-24 13:31N 53°27' E 006°50'0 0.0
2015-Jul-24 12:33N 53°27' E 006°50'3 2.6
2015-Jul-24 11:33N 53°29' E 006°47'3 2.7
2015-Jul-24 10:33N 53°30' E 006°43'0 0.0
2015-Jul-24 09:33N 53°30' E 006°42'0 0.0
2015-Jul-24 08:33N 53°30' E 006°42'0 0.0
2015-Jul-24 07:30N 53°30' E 006°42'0 0.0
2015-Jul-24 06:16N 53°30' E 006°43'0 0.0
2015-Jul-24 05:33N 53°30' E 006°43'5 5.1
2015-Jul-24 04:33N 53°27' E 006°50'0 0.0
2015-Jul-24 03:28N 53°27' E 006°50'0 0.0
2015-Jul-24 02:30N 53°27' E 006°50'0 0.0
2015-Jul-24 01:33N 53°27' E 006°50'0 0.0
2015-Jul-24 00:32N 53°27' E 006°50'0 0.0
2015-Jul-23 23:26N 53°27' E 006°50'0 0.0
2015-Jul-23 22:29N 53°27' E 006°50'0 0.0
2015-Jul-23 21:31N 53°27' E 006°50'0 0.0
2015-Jul-23 20:32N 53°27' E 006°50'0 0.0
2015-Jul-23 19:28N 53°27' E 006°50'0 0.0
2015-Jul-23 18:31N 53°27' E 006°50'0 0.0
2015-Jul-23 17:31N 53°27' E 006°50'0 0.0
2015-Jul-23 16:33N 53°27' E 006°50'0 0.0
2015-Jul-23 15:26N 53°27' E 006°50'1 1.5
2015-Jul-23 14:33N 53°28' E 006°49'1 1.3
2015-Jul-23 13:33N 53°27' E 006°50'0 0.1
2015-Jul-23 12:33N 53°27' E 006°50'0 0.0
2015-Jul-23 11:21N 53°27' E 006°50'5 6.0
2015-Jul-23 10:31N 53°29' E 006°43'0 0.0
2015-Jul-23 09:32N 53°29' E 006°43'0 0.0
2015-Jul-23 08:16N 53°29' E 006°43'0 0.0
2015-Jul-23 06:21N 53°29' E 006°43'0 0.0
2015-Jul-23 05:32N 53°29' E 006°43'2 2.1
2015-Jul-23 04:32N 53°29' E 006°46'3 2.8
2015-Jul-23 03:31N 53°27' E 006°50'4 4.5
2015-Jul-23 02:33N 53°29' E 006°44'4 4.4
2015-Jul-23 01:33N 53°27' E 006°50'0 0.1
2015-Jul-23 00:29N 53°27' E 006°50'0 0.0
2015-Jul-22 23:31N 53°27' E 006°50'0 0.0
2015-Jul-22 22:33N 53°27' E 006°50'0 0.0
2015-Jul-22 21:20N 53°27' E 006°50'0 0.0
2015-Jul-22 20:33N 53°27' E 006°50'  

Dump ship's entire track history